sensor_id;sensor_type;location;lat;lon;timestamp;pressure;altitude;pressure_sealevel;temperature;humidity
50684;BME280;36654;45.042;38.994;2023-08-07T00:00:31;99846.31;;;29.06;53.22
50684;BME280;36654;45.042;38.994;2023-08-07T00:02:57;99835.25;;;28.96;53.68
50684;BME280;36654;45.042;38.994;2023-08-07T00:05:23;99871.50;;;29.10;53.75
50684;BME280;36654;45.042;38.994;2023-08-07T00:07:48;99851.13;;;28.91;52.55
50684;BME280;36654;45.042;38.994;2023-08-07T00:10:14;99873.78;;;29.03;52.19
50684;BME280;36654;45.042;38.994;2023-08-07T00:12:40;99871.69;;;28.95;51.54
50684;BME280;36654;45.042;38.994;2023-08-07T00:15:06;99871.31;;;29.00;51.51
50684;BME280;36654;45.042;38.994;2023-08-07T00:17:32;99864.25;;;28.97;51.68
50684;BME280;36654;45.042;38.994;2023-08-07T00:19:58;99865.75;;;29.01;51.94
50684;BME280;36654;45.042;38.994;2023-08-07T00:22:25;99874.69;;;29.03;52.36
50684;BME280;36654;45.042;38.994;2023-08-07T00:24:51;99869.97;;;28.94;53.03
50684;BME280;36654;45.042;38.994;2023-08-07T00:27:17;99856.53;;;28.69;54.16
50684;BME280;36654;45.042;38.994;2023-08-07T00:29:42;99887.28;;;28.82;54.66
50684;BME280;36654;45.042;38.994;2023-08-07T00:32:08;99888.66;;;28.76;55.82
50684;BME280;36654;45.042;38.994;2023-08-07T00:34:34;99887.28;;;28.71;56.52
50684;BME280;36654;45.042;38.994;2023-08-07T00:36:59;99890.47;;;28.65;57.21
50684;BME280;36654;45.042;38.994;2023-08-07T00:39:25;99876.81;;;28.53;57.14
50684;BME280;36654;45.042;38.994;2023-08-07T00:41:51;99880.13;;;28.46;57.58
50684;BME280;36654;45.042;38.994;2023-08-07T00:44:16;99878.94;;;28.37;58.48
50684;BME280;36654;45.042;38.994;2023-08-07T00:46:42;99901.72;;;28.36;59.56
50684;BME280;36654;45.042;38.994;2023-08-07T00:49:09;99898.69;;;28.28;59.86
50684;BME280;36654;45.042;38.994;2023-08-07T00:51:37;99893.31;;;28.15;60.11
50684;BME280;36654;45.042;38.994;2023-08-07T00:54:04;99912.28;;;28.16;60.75
50684;BME280;36654;45.042;38.994;2023-08-07T00:56:31;99904.69;;;28.09;61.00
50684;BME280;36654;45.042;38.994;2023-08-07T00:58:58;99885.53;;;27.98;61.54
50684;BME280;36654;45.042;38.994;2023-08-07T01:01:25;99910.91;;;27.98;61.71
50684;BME280;36654;45.042;38.994;2023-08-07T01:03:51;99892.78;;;27.86;61.81
50684;BME280;36654;45.042;38.994;2023-08-07T01:06:17;99912.56;;;27.88;61.52
50684;BME280;36654;45.042;38.994;2023-08-07T01:08:43;99899.81;;;27.75;62.27
50684;BME280;36654;45.042;38.994;2023-08-07T01:11:36;99916.94;;;27.78;62.14
50684;BME280;36654;45.042;38.994;2023-08-07T01:17:09;99906.94;;;27.65;62.50
50684;BME280;36654;45.042;38.994;2023-08-07T01:19:36;99923.16;;;27.67;62.50
50684;BME280;36654;45.042;38.994;2023-08-07T01:24:32;99921.78;;;27.61;62.82
50684;BME280;36654;45.042;38.994;2023-08-07T01:30:14;99913.28;;;27.53;62.94
50684;BME280;36654;45.042;38.994;2023-08-07T01:35:41;99932.56;;;27.50;63.85
50684;BME280;36654;45.042;38.994;2023-08-07T01:38:08;99888.03;;;27.25;63.94
50684;BME280;36654;45.042;38.994;2023-08-07T01:40:36;99935.50;;;27.47;63.88
50684;BME280;36654;45.042;38.994;2023-08-07T01:43:02;99930.06;;;27.47;64.24
50684;BME280;36654;45.042;38.994;2023-08-07T01:45:28;99940.94;;;27.47;64.30
50684;BME280;36654;45.042;38.994;2023-08-07T01:47:54;99938.66;;;27.41;64.46
50684;BME280;36654;45.042;38.994;2023-08-07T01:50:21;99951.38;;;27.40;64.23
50684;BME280;36654;45.042;38.994;2023-08-07T01:52:48;99965.13;;;27.39;64.69
50684;BME280;36654;45.042;38.994;2023-08-07T01:55:18;99961.41;;;27.40;64.49
50684;BME280;36654;45.042;38.994;2023-08-07T01:57:43;99965.84;;;27.41;64.50
50684;BME280;36654;45.042;38.994;2023-08-07T02:00:10;99970.13;;;27.45;64.29
50684;BME280;36654;45.042;38.994;2023-08-07T02:02:36;99969.47;;;27.41;64.36
50684;BME280;36654;45.042;38.994;2023-08-07T02:05:02;99983.94;;;27.42;64.84
50684;BME280;36654;45.042;38.994;2023-08-07T02:07:29;99986.66;;;27.42;64.64
50684;BME280;36654;45.042;38.994;2023-08-07T02:09:55;99983.94;;;27.42;64.38
50684;BME280;36654;45.042;38.994;2023-08-07T02:12:20;99986.66;;;27.42;64.54
50684;BME280;36654;45.042;38.994;2023-08-07T02:14:46;99992.34;;;27.39;64.32
50684;BME280;36654;45.042;38.994;2023-08-07T02:17:12;99994.06;;;27.40;64.59
50684;BME280;36654;45.042;38.994;2023-08-07T02:19:37;99986.22;;;27.35;64.89
50684;BME280;36654;45.042;38.994;2023-08-07T02:22:03;99983.81;;;27.30;65.06
50684;BME280;36654;45.042;38.994;2023-08-07T02:24:29;99985.34;;;27.35;65.25
50684;BME280;36654;45.042;38.994;2023-08-07T02:26:54;99995.38;;;27.34;65.19
50684;BME280;36654;45.042;38.994;2023-08-07T02:29:20;99997.00;;;27.37;65.21
50684;BME280;36654;45.042;38.994;2023-08-07T02:31:46;99995.38;;;27.47;64.99
50684;BME280;36654;45.042;38.994;2023-08-07T02:34:13;99997.31;;;27.70;64.38
50684;BME280;36654;45.042;38.994;2023-08-07T02:36:38;99998.84;;;28.00;63.62
50684;BME280;36654;45.042;38.994;2023-08-07T02:39:04;99964.56;;;28.22;62.49
50684;BME280;36654;45.042;38.994;2023-08-07T02:41:29;99996.88;;;28.76;60.92
50684;BME280;36654;45.042;38.994;2023-08-07T02:43:57;99989.88;;;28.96;60.38
50684;BME280;36654;45.042;38.994;2023-08-07T02:46:22;100005.25;;;29.32;59.38
50684;BME280;36654;45.042;38.994;2023-08-07T02:48:48;100016.03;;;29.69;58.36
50684;BME280;36654;45.042;38.994;2023-08-07T02:51:14;100003.72;;;30.08;57.30
50684;BME280;36654;45.042;38.994;2023-08-07T02:53:39;100004.56;;;30.43;56.03
50684;BME280;36654;45.042;38.994;2023-08-07T02:56:05;99970.59;;;30.57;54.83
50684;BME280;36654;45.042;38.994;2023-08-07T02:58:30;100006.81;;;31.13;53.85
50684;BME280;36654;45.042;38.994;2023-08-07T03:00:56;99977.72;;;31.33;52.54
50684;BME280;36654;45.042;38.994;2023-08-07T03:03:22;100011.88;;;31.81;51.39
50684;BME280;36654;45.042;38.994;2023-08-07T03:05:51;100009.97;;;32.02;50.75
50684;BME280;36654;45.042;38.994;2023-08-07T03:08:17;100013.50;;;32.24;49.89
50684;BME280;36654;45.042;38.994;2023-08-07T03:10:50;99987.28;;;32.31;49.46
50684;BME280;36654;45.042;38.994;2023-08-07T03:13:16;99979.19;;;32.39;49.20
50684;BME280;36654;45.042;38.994;2023-08-07T03:15:41;100016.81;;;32.68;48.58
50684;BME280;36654;45.042;38.994;2023-08-07T03:18:07;100016.84;;;32.87;47.97
50684;BME280;36654;45.042;38.994;2023-08-07T03:20:32;100007.72;;;32.97;47.59
50684;BME280;36654;45.042;38.994;2023-08-07T03:22:58;100009.03;;;33.12;46.84
50684;BME280;36654;45.042;38.994;2023-08-07T03:25:24;100017.13;;;33.33;46.36
50684;BME280;36654;45.042;38.994;2023-08-07T03:27:49;100006.69;;;33.56;46.07
50684;BME280;36654;45.042;38.994;2023-08-07T03:30:15;100015.31;;;33.81;45.41
50684;BME280;36654;45.042;38.994;2023-08-07T03:32:40;100022.13;;;34.04;44.52
50684;BME280;36654;45.042;38.994;2023-08-07T03:35:07;100039.50;;;34.05;44.39
50684;BME280;36654;45.042;38.994;2023-08-07T03:37:33;100028.56;;;33.95;44.64
50684;BME280;36654;45.042;38.994;2023-08-07T03:39:58;99988.28;;;33.66;44.76
50684;BME280;36654;45.042;38.994;2023-08-07T03:42:24;100018.50;;;33.76;44.77
50684;BME280;36654;45.042;38.994;2023-08-07T03:44:49;100015.06;;;33.64;44.92
50684;BME280;36654;45.042;38.994;2023-08-07T03:47:15;100028.31;;;33.79;44.83
50684;BME280;36654;45.042;38.994;2023-08-07T03:49:41;100006.34;;;33.79;44.53
50684;BME280;36654;45.042;38.994;2023-08-07T03:52:06;100032.38;;;33.75;44.23
50684;BME280;36654;45.042;38.994;2023-08-07T03:54:32;100043.22;;;33.76;44.35
50684;BME280;36654;45.042;38.994;2023-08-07T03:56:58;100031.47;;;33.84;44.55
50684;BME280;36654;45.042;38.994;2023-08-07T03:59:23;100030.31;;;33.86;44.29
50684;BME280;36654;45.042;38.994;2023-08-07T04:01:49;100037.25;;;33.90;44.00
50684;BME280;36654;45.042;38.994;2023-08-07T04:04:14;100045.31;;;34.02;43.86
50684;BME280;36654;45.042;38.994;2023-08-07T04:06:40;100049.06;;;34.01;43.30
50684;BME280;36654;45.042;38.994;2023-08-07T04:09:06;100039.88;;;33.82;43.74
50684;BME280;36654;45.042;38.994;2023-08-07T04:11:31;100017.06;;;33.62;44.43
50684;BME280;36654;45.042;38.994;2023-08-07T04:13:58;100035.84;;;33.77;44.32
50684;BME280;36654;45.042;38.994;2023-08-07T04:16:24;100024.41;;;33.81;43.86
50684;BME280;36654;45.042;38.994;2023-08-07T04:18:51;100045.22;;;33.84;44.01
50684;BME280;36654;45.042;38.994;2023-08-07T04:21:16;100044.50;;;33.82;44.17
50684;BME280;36654;45.042;38.994;2023-08-07T04:23:42;100039.00;;;33.82;44.43
50684;BME280;36654;45.042;38.994;2023-08-07T04:26:08;100045.31;;;34.02;44.06
50684;BME280;36654;45.042;38.994;2023-08-07T04:28:33;100046.47;;;33.99;43.82
50684;BME280;36654;45.042;38.994;2023-08-07T04:30:59;100045.94;;;33.86;44.46
50684;BME280;36654;45.042;38.994;2023-08-07T04:33:24;100043.31;;;33.94;43.87
50684;BME280;36654;45.042;38.994;2023-08-07T04:35:50;100042.72;;;34.00;44.06
50684;BME280;36654;45.042;38.994;2023-08-07T04:38:16;100035.97;;;34.22;43.38
50684;BME280;36654;45.042;38.994;2023-08-07T04:40:49;100039.41;;;34.34;43.14
50684;BME280;36654;45.042;38.994;2023-08-07T04:43:17;100041.72;;;34.56;43.20
50684;BME280;36654;45.042;38.994;2023-08-07T04:45:43;100030.53;;;34.68;42.50
50684;BME280;36654;45.042;38.994;2023-08-07T04:48:10;100034.47;;;34.83;42.39
50684;BME280;36654;45.042;38.994;2023-08-07T04:50:37;100040.00;;;35.19;41.59
50684;BME280;36654;45.042;38.994;2023-08-07T04:53:04;100025.34;;;35.00;41.94
50684;BME280;36654;45.042;38.994;2023-08-07T04:55:30;100046.16;;;35.13;42.28
50684;BME280;36654;45.042;38.994;2023-08-07T04:57:56;100058.50;;;35.27;41.90
50684;BME280;36654;45.042;38.994;2023-08-07T05:00:23;100025.53;;;35.35;41.49
50684;BME280;36654;45.042;38.994;2023-08-07T05:02:48;100044.97;;;35.77;40.43
50684;BME280;36654;45.042;38.994;2023-08-07T05:05:15;100056.09;;;35.94;40.35
50684;BME280;36654;45.042;38.994;2023-08-07T05:07:41;100017.91;;;35.55;40.93
50684;BME280;36654;45.042;38.994;2023-08-07T05:10:09;100058.16;;;35.48;41.42
50684;BME280;36654;45.042;38.994;2023-08-07T05:12:35;100062.25;;;35.43;41.58
50684;BME280;36654;45.042;38.994;2023-08-07T05:15:00;100061.88;;;35.38;41.69
50684;BME280;36654;45.042;38.994;2023-08-07T05:17:26;100064.84;;;35.27;41.49
50684;BME280;36654;45.042;38.994;2023-08-07T05:19:52;100036.53;;;35.17;41.51
50684;BME280;36654;45.042;38.994;2023-08-07T05:22:18;100051.34;;;35.16;41.42
50684;BME280;36654;45.042;38.994;2023-08-07T05:24:43;100054.09;;;35.16;41.69
50684;BME280;36654;45.042;38.994;2023-08-07T05:27:11;100062.66;;;35.31;41.69
50684;BME280;36654;45.042;38.994;2023-08-07T05:29:37;100073.31;;;35.52;41.15
50684;BME280;36654;45.042;38.994;2023-08-07T05:32:10;100042.88;;;35.53;40.77
50684;BME280;36654;45.042;38.994;2023-08-07T05:34:36;100079.00;;;35.68;40.83
50684;BME280;36654;45.042;38.994;2023-08-07T05:37:01;100079.78;;;35.78;40.68
50684;BME280;36654;45.042;38.994;2023-08-07T05:39:27;100076.97;;;35.70;40.84
50684;BME280;36654;45.042;38.994;2023-08-07T05:41:52;100084.19;;;35.71;41.25
50684;BME280;36654;45.042;38.994;2023-08-07T05:44:20;100090.75;;;35.70;41.01
50684;BME280;36654;45.042;38.994;2023-08-07T05:46:45;100068.16;;;35.49;41.72
50684;BME280;36654;45.042;38.994;2023-08-07T05:49:11;100078.44;;;35.64;41.41
50684;BME280;36654;45.042;38.994;2023-08-07T05:51:37;100077.22;;;35.59;41.35
50684;BME280;36654;45.042;38.994;2023-08-07T05:54:02;100092.25;;;35.47;41.94
50684;BME280;36654;45.042;38.994;2023-08-07T05:56:28;100082.63;;;35.51;41.64
50684;BME280;36654;45.042;38.994;2023-08-07T05:58:54;100072.56;;;35.41;41.54
50684;BME280;36654;45.042;38.994;2023-08-07T06:01:19;100080.13;;;35.39;41.40
50684;BME280;36654;45.042;38.994;2023-08-07T06:03:45;100073.69;;;35.13;41.98
50684;BME280;36654;45.042;38.994;2023-08-07T06:06:12;100104.06;;;35.21;41.77
50684;BME280;36654;45.042;38.994;2023-08-07T06:08:37;100084.72;;;35.13;42.20
50684;BME280;36654;45.042;38.994;2023-08-07T06:11:03;100090.94;;;34.87;42.07
50684;BME280;36654;45.042;38.994;2023-08-07T06:13:31;100084.63;;;34.49;42.53
50684;BME280;36654;45.042;38.994;2023-08-07T06:15:56;100086.44;;;33.93;43.35
50684;BME280;36654;45.042;38.994;2023-08-07T06:18:22;100089.41;;;33.72;43.65
50684;BME280;36654;45.042;38.994;2023-08-07T06:20:47;100077.25;;;33.46;44.09
50684;BME280;36654;45.042;38.994;2023-08-07T06:23:13;100084.34;;;33.39;43.84
50684;BME280;36654;45.042;38.994;2023-08-07T06:25:39;100085.34;;;33.18;45.11
50684;BME280;36654;45.042;38.994;2023-08-07T06:28:04;100092.44;;;33.11;45.30
50684;BME280;36654;45.042;38.994;2023-08-07T06:30:33;100102.13;;;33.05;44.85
50684;BME280;36654;45.042;38.994;2023-08-07T06:32:58;100082.97;;;32.94;44.83
50684;BME280;36654;45.042;38.994;2023-08-07T06:35:24;100105.25;;;32.91;45.67
50684;BME280;36654;45.042;38.994;2023-08-07T06:37:50;100104.66;;;32.97;45.89
50684;BME280;36654;45.042;38.994;2023-08-07T06:40:15;100094.56;;;32.98;46.26
50684;BME280;36654;45.042;38.994;2023-08-07T06:42:41;100092.97;;;32.95;45.65
50684;BME280;36654;45.042;38.994;2023-08-07T06:45:07;100080.97;;;32.86;45.51
50684;BME280;36654;45.042;38.994;2023-08-07T06:47:32;100103.50;;;32.90;45.41
50684;BME280;36654;45.042;38.994;2023-08-07T06:49:59;100098.59;;;32.94;45.58
50684;BME280;36654;45.042;38.994;2023-08-07T06:52:24;100102.06;;;32.96;45.28
50684;BME280;36654;45.042;38.994;2023-08-07T06:54:50;100105.81;;;32.95;45.11
50684;BME280;36654;45.042;38.994;2023-08-07T06:57:16;100111.22;;;33.06;45.16
50684;BME280;36654;45.042;38.994;2023-08-07T06:59:41;100108.75;;;33.03;45.13
50684;BME280;36654;45.042;38.994;2023-08-07T07:02:07;100121.47;;;33.04;44.85
50684;BME280;36654;45.042;38.994;2023-08-07T07:04:32;100104.09;;;32.94;45.22
50684;BME280;36654;45.042;38.994;2023-08-07T07:06:58;100117.09;;;33.01;44.94
50684;BME280;36654;45.042;38.994;2023-08-07T07:09:24;100105.44;;;33.09;44.33
50684;BME280;36654;45.042;38.994;2023-08-07T07:11:50;100118.00;;;33.21;43.79
50684;BME280;36654;45.042;38.994;2023-08-07T07:14:15;100136.22;;;33.32;43.90
50684;BME280;36654;45.042;38.994;2023-08-07T07:16:41;100131.47;;;33.44;43.93
50684;BME280;36654;45.042;38.994;2023-08-07T07:19:08;100137.38;;;33.49;42.80
50684;BME280;36654;45.042;38.994;2023-08-07T07:21:35;100130.91;;;33.50;42.83
50684;BME280;36654;45.042;38.994;2023-08-07T07:24:02;100131.59;;;33.52;42.71
50684;BME280;36654;45.042;38.994;2023-08-07T07:26:28;100133.94;;;33.57;42.95
50684;BME280;36654;45.042;38.994;2023-08-07T07:28:54;100137.13;;;33.62;42.63
50684;BME280;36654;45.042;38.994;2023-08-07T07:31:19;100131.78;;;33.60;42.47
50684;BME280;36654;45.042;38.994;2023-08-07T07:33:45;100129.59;;;33.73;42.24
50684;BME280;36654;45.042;38.994;2023-08-07T07:36:18;100089.69;;;33.60;41.80
50684;BME280;36654;45.042;38.994;2023-08-07T07:38:47;100144.59;;;33.89;42.06
50684;BME280;36654;45.042;38.994;2023-08-07T07:41:14;100132.44;;;33.91;41.77
50684;BME280;36654;45.042;38.994;2023-08-07T07:43:40;100153.56;;;34.01;42.25
50684;BME280;36654;45.042;38.994;2023-08-07T07:46:05;100138.66;;;34.03;42.13
50684;BME280;36654;45.042;38.994;2023-08-07T07:48:31;100149.06;;;34.09;42.15
50684;BME280;36654;45.042;38.994;2023-08-07T07:51:03;100139.38;;;34.05;42.69
50684;BME280;36654;45.042;38.994;2023-08-07T07:53:30;100145.44;;;34.19;42.74
50684;BME280;36654;45.042;38.994;2023-08-07T07:55:56;100158.44;;;34.26;42.33
50684;BME280;36654;45.042;38.994;2023-08-07T07:58:22;100156.72;;;34.25;42.27
50684;BME280;36654;45.042;38.994;2023-08-07T08:00:48;100162.31;;;34.33;42.70
50684;BME280;36654;45.042;38.994;2023-08-07T08:03:14;100169.53;;;34.34;42.36
50684;BME280;36654;45.042;38.994;2023-08-07T08:05:40;100168.53;;;34.35;42.40
50684;BME280;36654;45.042;38.994;2023-08-07T08:08:06;100154.97;;;34.24;42.34
50684;BME280;36654;45.042;38.994;2023-08-07T08:10:35;100170.47;;;34.25;42.75
50684;BME280;36654;45.042;38.994;2023-08-07T08:13:01;100166.28;;;34.21;42.18
50684;BME280;36654;45.042;38.994;2023-08-07T08:15:29;100154.28;;;34.12;42.51
50684;BME280;36654;45.042;38.994;2023-08-07T08:17:55;100158.47;;;34.17;42.61
50684;BME280;36654;45.042;38.994;2023-08-07T08:20:21;100166.81;;;34.25;42.28
50684;BME280;36654;45.042;38.994;2023-08-07T08:22:47;100143.94;;;34.34;42.07
50684;BME280;36654;45.042;38.994;2023-08-07T08:25:13;100161.56;;;34.41;41.85
50684;BME280;36654;45.042;38.994;2023-08-07T08:27:39;100161.53;;;34.51;41.88
50684;BME280;36654;45.042;38.994;2023-08-07T08:30:06;100167.31;;;34.57;42.10
50684;BME280;36654;45.042;38.994;2023-08-07T08:32:32;100158.63;;;34.52;41.67
50684;BME280;36654;45.042;38.994;2023-08-07T08:34:58;100182.38;;;34.53;42.31
50684;BME280;36654;45.042;38.994;2023-08-07T08:37:24;100168.78;;;34.42;42.11
50684;BME280;36654;45.042;38.994;2023-08-07T08:39:50;100177.53;;;34.38;42.31
50684;BME280;36654;45.042;38.994;2023-08-07T08:42:16;100166.81;;;34.25;42.36
50684;BME280;36654;45.042;38.994;2023-08-07T08:44:55;100185.34;;;34.32;42.66
50684;BME280;36654;45.042;38.994;2023-08-07T08:47:22;100176.94;;;34.34;42.62
50684;BME280;36654;45.042;38.994;2023-08-07T08:50:02;100180.09;;;34.39;42.71
50684;BME280;36654;45.042;38.994;2023-08-07T08:52:28;100181.28;;;34.27;42.53
50684;BME280;36654;45.042;38.994;2023-08-07T08:54:57;100189.75;;;34.15;42.77
50684;BME280;36654;45.042;38.994;2023-08-07T08:57:24;100184.25;;;34.15;42.77
50684;BME280;36654;45.042;38.994;2023-08-07T08:59:50;100178.00;;;34.04;42.70
50684;BME280;36654;45.042;38.994;2023-08-07T09:02:17;100198.28;;;34.12;42.68
50684;BME280;36654;45.042;38.994;2023-08-07T09:04:44;100184.53;;;34.12;42.73
50684;BME280;36654;45.042;38.994;2023-08-07T09:07:11;100179.56;;;34.26;42.55
50684;BME280;36654;45.042;38.994;2023-08-07T09:09:39;100191.41;;;34.36;42.28
50684;BME280;36654;45.042;38.994;2023-08-07T09:12:12;100202.97;;;34.40;42.21
50684;BME280;36654;45.042;38.994;2023-08-07T09:14:41;100187.38;;;34.30;42.56
50684;BME280;36654;45.042;38.994;2023-08-07T09:17:10;100181.03;;;34.30;42.88
50684;BME280;36654;45.042;38.994;2023-08-07T09:19:36;100197.47;;;34.40;42.26
50684;BME280;36654;45.042;38.994;2023-08-07T09:22:02;100191.06;;;34.49;42.40
50684;BME280;36654;45.042;38.994;2023-08-07T09:24:28;100202.53;;;34.44;42.67
50684;BME280;36654;45.042;38.994;2023-08-07T09:26:55;100203.25;;;34.46;42.34
50684;BME280;36654;45.042;38.994;2023-08-07T09:29:22;100203.28;;;34.36;42.71
50684;BME280;36654;45.042;38.994;2023-08-07T09:31:47;100198.63;;;34.37;42.67
50684;BME280;36654;45.042;38.994;2023-08-07T09:34:13;100201.22;;;34.48;42.71
50684;BME280;36654;45.042;38.994;2023-08-07T09:36:42;100197.72;;;34.56;42.25
50684;BME280;36654;45.042;38.994;2023-08-07T09:39:08;100190.94;;;34.50;42.40
50684;BME280;36654;45.042;38.994;2023-08-07T09:41:33;100196.84;;;34.55;42.56
50684;BME280;36654;45.042;38.994;2023-08-07T09:44:09;100195.81;;;34.56;42.76
50684;BME280;36654;45.042;38.994;2023-08-07T09:46:45;100193.06;;;34.56;42.89
50684;BME280;36654;45.042;38.994;2023-08-07T09:49:11;100181.25;;;34.46;42.55
50684;BME280;36654;45.042;38.994;2023-08-07T09:51:45;100172.91;;;34.28;42.64
50684;BME280;36654;45.042;38.994;2023-08-07T09:54:11;100223.97;;;34.50;42.81
50684;BME280;36654;45.042;38.994;2023-08-07T09:56:38;100216.56;;;34.61;42.49
50684;BME280;36654;45.042;38.994;2023-08-07T09:59:04;100195.97;;;34.65;42.48
50684;BME280;36654;45.042;38.994;2023-08-07T10:01:30;100225.38;;;34.92;42.28
50684;BME280;36654;45.042;38.994;2023-08-07T10:03:57;100216.47;;;34.80;41.72
50684;BME280;36654;45.042;38.994;2023-08-07T10:06:25;100212.44;;;34.74;42.08
50684;BME280;36654;45.042;38.994;2023-08-07T10:08:51;100208.78;;;34.84;41.81
50684;BME280;36654;45.042;38.994;2023-08-07T10:11:18;100219.34;;;34.88;42.35
50684;BME280;36654;45.042;38.994;2023-08-07T10:13:44;100203.31;;;34.74;42.42
50684;BME280;36654;45.042;38.994;2023-08-07T10:16:11;100228.50;;;34.79;42.32
50684;BME280;36654;45.042;38.994;2023-08-07T10:18:36;100234.31;;;34.76;42.10
50684;BME280;36654;45.042;38.994;2023-08-07T10:21:06;100176.16;;;34.51;42.20
50684;BME280;36654;45.042;38.994;2023-08-07T10:23:36;100218.50;;;34.78;41.74
50684;BME280;36654;45.042;38.994;2023-08-07T10:26:04;100227.09;;;34.75;42.48
50684;BME280;36654;45.042;38.994;2023-08-07T10:28:33;100239.09;;;34.74;42.46
50684;BME280;36654;45.042;38.994;2023-08-07T10:31:04;100242.16;;;34.71;42.55
50684;BME280;36654;45.042;38.994;2023-08-07T10:33:31;100235.63;;;34.72;42.46
50684;BME280;36654;45.042;38.994;2023-08-07T10:35:57;100235.47;;;34.73;42.35
50684;BME280;36654;45.042;38.994;2023-08-07T10:38:25;100233.59;;;34.74;42.08
50684;BME280;36654;45.042;38.994;2023-08-07T10:41:20;100244.06;;;34.70;42.25
50684;BME280;36654;45.042;38.994;2023-08-07T10:43:46;100247.25;;;34.66;43.02
50684;BME280;36654;45.042;38.994;2023-08-07T10:46:15;100250.69;;;34.77;42.71
50684;BME280;36654;45.042;38.994;2023-08-07T10:48:45;100245.72;;;34.81;42.39
50684;BME280;36654;45.042;38.994;2023-08-07T10:51:15;100248.38;;;34.73;43.03
50684;BME280;36654;45.042;38.994;2023-08-07T10:53:47;100244.34;;;34.57;42.87
50684;BME280;36654;45.042;38.994;2023-08-07T10:56:38;100255.09;;;34.61;43.13
50684;BME280;36654;45.042;38.994;2023-08-07T10:59:11;100251.00;;;34.65;43.17
50684;BME280;36654;45.042;38.994;2023-08-07T11:04:14;100251.78;;;34.85;42.48
50684;BME280;36654;45.042;38.994;2023-08-07T11:06:41;100259.31;;;34.92;42.23
50684;BME280;36654;45.042;38.994;2023-08-07T11:09:09;100231.66;;;34.84;42.15
50684;BME280;36654;45.042;38.994;2023-08-07T11:11:53;100250.22;;;34.82;42.46
50684;BME280;36654;45.042;38.994;2023-08-07T11:14:19;100240.53;;;34.78;42.41
50684;BME280;36654;45.042;38.994;2023-08-07T11:16:47;100255.06;;;34.70;43.64
50684;BME280;36654;45.042;38.994;2023-08-07T11:19:17;100246.09;;;34.68;43.64
50684;BME280;36654;45.042;38.994;2023-08-07T11:21:44;100233.59;;;34.74;42.67
50684;BME280;36654;45.042;38.994;2023-08-07T11:24:13;100250.22;;;34.82;43.34
50684;BME280;36654;45.042;38.994;2023-08-07T11:26:39;100233.91;;;34.71;42.69
50684;BME280;36654;45.042;38.994;2023-08-07T11:29:05;100244.06;;;34.70;42.57
50684;BME280;36654;45.042;38.994;2023-08-07T11:31:30;100245.22;;;34.68;42.81
50684;BME280;36654;45.042;38.994;2023-08-07T11:33:57;100252.97;;;34.82;42.51
50684;BME280;36654;45.042;38.994;2023-08-07T11:36:23;100254.84;;;34.82;42.01
50684;BME280;36654;45.042;38.994;2023-08-07T11:38:49;100244.91;;;34.71;42.18
50684;BME280;36654;45.042;38.994;2023-08-07T11:41:16;100243.19;;;34.70;42.28
50684;BME280;36654;45.042;38.994;2023-08-07T11:43:42;100247.97;;;34.68;42.31
50684;BME280;36654;45.042;38.994;2023-08-07T11:46:13;100222.22;;;34.40;42.65
50684;BME280;36654;45.042;38.994;2023-08-07T11:48:40;100260.16;;;34.55;43.00
50684;BME280;36654;45.042;38.994;2023-08-07T11:51:06;100260.84;;;34.67;42.76
50684;BME280;36654;45.042;38.994;2023-08-07T11:53:34;100268.06;;;34.78;42.47
50684;BME280;36654;45.042;38.994;2023-08-07T11:56:11;100244.88;;;34.81;41.66
50684;BME280;36654;45.042;38.994;2023-08-07T11:58:41;100266.56;;;34.93;42.11
50684;BME280;36654;45.042;38.994;2023-08-07T12:01:12;100255.00;;;34.90;42.08
50684;BME280;36654;45.042;38.994;2023-08-07T12:03:41;100252.22;;;34.90;42.60
50684;BME280;36654;45.042;38.994;2023-08-07T12:06:08;100260.28;;;35.11;41.92
50684;BME280;36654;45.042;38.994;2023-08-07T12:08:39;100264.47;;;35.15;41.36
50684;BME280;36654;45.042;38.994;2023-08-07T12:11:12;100270.25;;;35.12;41.60
50684;BME280;36654;45.042;38.994;2023-08-07T12:13:40;100270.97;;;35.14;41.40
50684;BME280;36654;45.042;38.994;2023-08-07T12:16:06;100270.25;;;35.12;41.28
50684;BME280;36654;45.042;38.994;2023-08-07T12:18:34;100272.72;;;35.15;41.19
50684;BME280;36654;45.042;38.994;2023-08-07T12:21:04;100253.53;;;35.23;41.34
50684;BME280;36654;45.042;38.994;2023-08-07T12:23:35;100229.53;;;35.06;40.74
50684;BME280;36654;45.042;38.994;2023-08-07T12:26:02;100262.91;;;35.30;40.63
50684;BME280;36654;45.042;38.994;2023-08-07T12:28:28;100268.44;;;35.30;40.86
50684;BME280;36654;45.042;38.994;2023-08-07T12:30:53;100263.53;;;35.24;40.59
50684;BME280;36654;45.042;38.994;2023-08-07T12:33:19;100263.69;;;35.22;41.05
50684;BME280;36654;45.042;38.994;2023-08-07T12:35:45;100274.78;;;35.31;40.74
50684;BME280;36654;45.042;38.994;2023-08-07T12:38:11;100281.81;;;35.25;40.83
50684;BME280;36654;45.042;38.994;2023-08-07T12:40:40;100272.81;;;35.23;41.02
50684;BME280;36654;45.042;38.994;2023-08-07T12:43:06;100280.84;;;35.34;40.37
50684;BME280;36654;45.042;38.994;2023-08-07T12:45:32;100275.06;;;35.37;40.11
50684;BME280;36654;45.042;38.994;2023-08-07T12:47:59;100279.53;;;35.38;39.78
50684;BME280;36654;45.042;38.994;2023-08-07T12:50:24;100283.94;;;35.31;40.14
50684;BME280;36654;45.042;38.994;2023-08-07T12:52:50;100285.34;;;35.35;40.06
50684;BME280;36654;45.042;38.994;2023-08-07T12:55:16;100284.97;;;35.30;39.75